Time;durP1;ratioP1;P1;durP2;ratioP2;P2;SDS_P1;SDS_P2;PMS_P1;PMS_P2;Temp;Humidity;BMP_temperature;BMP_pressure;BME280_temperature;BME280_humidity;BME280_pressure;Samples;Min_cycle;Max_cycle;Signal;HPM_P1;HPM_P2
2022/04/20 00:00:00;;;;;;;6.08;4.17;;;;;;;6.23;63.88;98639.16;1754230;81;21110;-39
2022/04/20 00:02:29;;;;;;;5.40;4.30;;;;;;;6.24;63.70;98651.50;1754481;81;22026;-39
2022/04/20 00:04:55;;;;;;;5.97;4.45;;;;;;;6.22;63.52;98651.05;1754229;81;20995;-39
2022/04/20 00:07:23;;;;;;;6.47;4.03;;;;;;;6.19;63.50;98649.06;1754470;81;21018;-39
2022/04/20 00:09:49;;;;;;;5.17;4.25;;;;;;;6.18;63.48;98655.57;1754362;81;21027;-39
2022/04/20 00:12:18;;;;;;;4.70;3.92;;;;;;;6.15;63.43;98654.91;1754429;81;21271;-39
2022/04/20 00:14:44;;;;;;;6.60;4.67;;;;;;;6.15;63.63;98654.15;1754328;81;21262;-39
2022/04/20 00:17:13;;;;;;;5.78;3.70;;;;;;;6.15;63.58;98657.59;1751686;81;21018;-39
2022/04/20 00:19:39;;;;;;;5.35;4.20;;;;;;;6.20;63.59;98660.02;1751302;82;21091;-39
2022/04/20 00:22:06;;;;;;;4.72;3.77;;;;;;;6.22;63.27;98661.82;1751463;82;21019;-39
2022/04/20 00:24:34;;;;;;;4.95;3.55;;;;;;;6.22;63.11;98661.03;1751427;82;21561;-39
2022/04/20 00:27:01;;;;;;;6.33;4.25;;;;;;;6.21;63.31;98662.94;1751370;82;23157;-39
2022/04/20 00:29:30;;;;;;;3.50;3.20;;;;;;;6.22;63.28;98663.73;1751263;82;21202;-39
2022/04/20 00:31:57;;;;;;;4.80;3.65;;;;;;;6.23;63.28;98668.77;1751289;82;21034;-39
2022/04/20 00:34:25;;;;;;;5.75;3.62;;;;;;;6.23;63.21;98669.33;1751543;82;21565;-39
2022/04/20 00:36:53;;;;;;;4.37;3.60;;;;;;;6.21;63.04;98669.67;1751583;82;21545;-39
2022/04/20 00:39:20;;;;;;;4.42;3.72;;;;;;;6.18;63.08;98664.99;1751721;82;21867;-39
2022/04/20 00:41:47;;;;;;;4.17;3.42;;;;;;;6.17;63.31;98671.50;1744456;81;21072;-39
2022/04/20 00:44:15;;;;;;;5.72;3.85;;;;;;;6.18;62.95;98674.41;1732928;82;20933;-39
2022/04/20 00:46:42;;;;;;;4.53;3.20;;;;;;;6.21;62.96;98671.02;1741169;82;21072;-39
2022/04/20 00:49:11;;;;;;;6.20;3.40;;;;;;;6.26;63.04;98663.24;1707950;83;21029;-39
2022/04/20 00:51:57;;;;;;;4.15;3.25;;;;;;;6.26;62.90;98664.03;1743492;82;21263;-39
2022/04/20 00:54:25;;;;;;;4.37;2.98;;;;;;;6.24;62.92;98666.86;1707888;84;20961;-39
2022/04/20 00:56:52;;;;;;;4.42;3.45;;;;;;;6.20;63.08;98665.41;1686452;84;21060;-39
2022/04/20 00:59:23;;;;;;;4.17;3.20;;;;;;;6.16;63.05;98665.89;1743585;81;21586;-39
2022/04/20 01:01:51;;;;;;;4.70;3.72;;;;;;;6.17;63.26;98670.15;1743420;81;20894;-39
2022/04/20 01:04:19;;;;;;;4.40;3.22;;;;;;;6.17;63.29;98670.70;1707707;83;21248;-39
2022/04/20 01:06:52;;;;;;;4.70;3.65;;;;;;;6.16;63.41;98671.27;1707630;84;20959;-39
2022/04/20 01:09:27;;;;;;;3.75;3.30;;;;;;;6.14;63.46;98672.20;1683478;84;21510;-39
2022/04/20 01:11:56;;;;;;;4.20;3.33;;;;;;;6.11;63.54;98672.88;1706003;83;21084;-39
2022/04/20 01:14:35;;;;;;;3.90;3.33;;;;;;;6.16;63.50;98673.17;1693106;84;21577;-39
2022/04/20 01:17:05;;;;;;;4.60;3.10;;;;;;;6.15;63.38;98676.43;1742644;81;21590;-40
2022/04/20 01:19:40;;;;;;;5.58;3.55;;;;;;;6.14;63.59;98677.58;1693274;83;21047;-39
2022/04/20 01:22:24;;;;;;;4.08;3.22;;;;;;;6.15;63.47;98681.81;1741921;82;21508;-39
2022/04/20 01:24:54;;;;;;;3.60;3.02;;;;;;;6.13;63.37;98670.62;1682516;81;21563;-40
2022/04/20 01:27:41;;;;;;;3.30;3.00;;;;;;;6.14;63.37;98672.77;1743272;81;20990;-39
2022/04/20 01:30:10;;;;;;;4.53;3.27;;;;;;;6.08;63.25;98672.23;1742606;81;21280;-39
2022/04/20 01:32:42;;;;;;;3.70;3.10;;;;;;;6.06;63.38;98671.78;1722433;81;21016;-40
2022/04/20 01:35:11;;;;;;;4.58;3.30;;;;;;;6.01;63.43;98668.78;1743174;82;21036;-40
2022/04/20 01:37:39;;;;;;;3.77;3.33;;;;;;;6.01;63.45;98666.66;1743342;82;20962;-40
2022/04/20 01:40:07;;;;;;;3.87;3.12;;;;;;;6.03;63.27;98668.45;1743463;82;21025;-40
2022/04/20 01:42:35;;;;;;;4.75;3.58;;;;;;;6.04;63.36;98665.42;1707859;83;21102;-40
2022/04/20 01:45:05;;;;;;;4.05;3.30;;;;;;;6.02;63.23;98669.56;1707629;84;21479;-39
2022/04/20 01:47:35;;;;;;;3.98;3.58;;;;;;;5.98;63.11;98674.08;1712626;81;20926;-39
2022/04/20 01:50:06;;;;;;;4.17;3.23;;;;;;;5.95;63.39;98678.82;1697786;84;21037;-39
2022/04/20 01:52:37;;;;;;;4.12;3.20;;;;;;;5.93;63.29;98672.43;1706604;83;20997;-39
2022/04/20 01:55:24;;;;;;;5.25;3.60;;;;;;;5.92;63.30;98675.45;1693447;84;21151;-39
2022/04/20 01:57:56;;;;;;;4.78;3.50;;;;;;;5.89;63.57;98674.25;1691274;84;21051;-39
2022/04/20 02:00:40;;;;;;;4.00;3.25;;;;;;;5.89;63.37;98682.87;1676519;85;21052;-39
2022/04/20 02:03:28;;;;;;;4.60;3.67;;;;;;;5.91;63.63;98681.95;1743042;81;21606;-39
2022/04/20 02:06:11;;;;;;;4.62;3.47;;;;;;;5.93;63.42;98677.02;1743738;81;21088;-40
2022/04/20 02:08:47;;;;;;;5.15;3.55;;;;;;;5.90;63.27;98676.38;1707546;83;21495;-39
2022/04/20 02:11:18;;;;;;;4.90;3.40;;;;;;;5.88;63.43;98677.27;1742981;81;20969;-39
2022/04/20 02:13:48;;;;;;;5.28;3.60;;;;;;;5.87;63.53;98674.36;1708016;83;20988;-39
2022/04/20 02:16:16;;;;;;;4.67;3.70;;;;;;;5.84;63.62;98672.34;1743430;82;21666;-39
2022/04/20 02:18:57;;;;;;;4.10;3.50;;;;;;;5.82;63.59;98675.92;1674350;83;21049;-39
2022/04/20 02:21:35;;;;;;;3.67;3.27;;;;;;;5.77;63.74;98678.86;1726393;81;21120;-39
2022/04/20 02:24:02;;;;;;;8.20;3.98;;;;;;;5.73;63.80;98674.73;1707444;84;21294;-39
2022/04/20 02:26:29;;;;;;;7.15;3.72;;;;;;;5.68;63.83;98677.12;1743379;82;20958;-39
2022/04/20 02:28:57;;;;;;;5.28;3.67;;;;;;;5.67;63.74;98675.55;1707752;83;21009;-39
2022/04/20 02:31:24;;;;;;;4.28;3.42;;;;;;;5.71;63.80;98682.95;1743484;82;21039;-39
2022/04/20 02:33:50;;;;;;;4.05;3.25;;;;;;;5.72;63.64;98688.52;1707507;84;23200;-39
2022/04/20 02:36:17;;;;;;;4.85;3.85;;;;;;;5.72;63.72;98683.14;1743494;82;20922;-39
2022/04/20 02:38:44;;;;;;;5.30;4.35;;;;;;;5.74;63.51;98688.97;1743490;81;21068;-39
2022/04/20 02:41:12;;;;;;;5.10;3.40;;;;;;;5.73;63.65;98684.72;1743587;81;21022;-39
2022/04/20 02:43:39;;;;;;;7.05;4.28;;;;;;;5.69;63.65;98688.10;1714430;83;21076;-39
2022/04/20 02:46:07;;;;;;;5.35;4.10;;;;;;;5.69;63.75;98686.75;1751608;81;21311;-39
2022/04/20 02:48:35;;;;;;;5.17;3.80;;;;;;;5.69;63.75;98688.10;1751478;82;21663;-39
2022/04/20 02:51:02;;;;;;;6.40;4.25;;;;;;;5.69;63.76;98693.48;1751419;82;21206;-39
2022/04/20 02:53:30;;;;;;;7.08;4.50;;;;;;;5.69;63.61;98693.48;1751739;82;21032;-39
2022/04/20 02:55:57;;;;;;;7.08;4.00;;;;;;;5.70;63.45;98692.92;1742522;82;21012;-39
2022/04/20 02:58:25;;;;;;;7.40;4.08;;;;;;;5.73;63.51;98698.95;1751486;82;21978;-40
2022/04/20 03:00:53;;;;;;;4.92;3.25;;;;;;;5.77;63.22;98693.66;1750917;82;20972;-39
2022/04/20 03:03:23;;;;;;;5.33;3.85;;;;;;;5.77;63.30;98692.31;1751323;82;20976;-39
2022/04/20 03:05:53;;;;;;;4.65;3.42;;;;;;;5.78;63.39;98693.88;1751332;82;20971;-39
2022/04/20 03:08:23;;;;;;;4.23;3.43;;;;;;;5.78;63.07;98691.98;1743728;82;21097;-39
2022/04/20 03:10:52;;;;;;;3.95;3.30;;;;;;;5.77;63.22;98699.03;1721538;83;20898;-39
2022/04/20 03:13:21;;;;;;;5.25;3.58;;;;;;;5.74;63.03;98695.70;1686819;85;20953;-39
2022/04/20 03:15:48;;;;;;;4.37;3.35;;;;;;;5.72;62.96;98699.28;1725075;82;21039;-39
2022/04/20 03:18:15;;;;;;;5.00;4.08;;;;;;;5.68;62.90;98699.97;1751574;81;20985;-39
2022/04/20 03:20:42;;;;;;;5.30;3.90;;;;;;;5.65;63.03;98693.95;1715532;83;20980;-39
2022/04/20 03:23:12;;;;;;;5.37;3.45;;;;;;;5.63;63.01;98696.75;1751629;81;21488;-39
2022/04/20 03:25:41;;;;;;;4.10;3.58;;;;;;;5.65;62.87;98697.20;1751730;82;20973;-39
2022/04/20 03:28:10;;;;;;;3.95;3.50;;;;;;;5.71;62.69;98694.48;1721763;82;21518;-39
2022/04/20 03:30:38;;;;;;;5.37;3.90;;;;;;;5.74;62.66;98707.23;1742453;82;21005;-39
2022/04/20 03:33:09;;;;;;;4.60;3.70;;;;;;;5.74;62.34;98713.17;1715376;83;21546;-39
2022/04/20 03:35:38;;;;;;;4.40;3.85;;;;;;;5.72;62.18;98717.55;1751364;82;21250;-39
2022/04/20 03:38:07;;;;;;;6.87;3.87;;;;;;;5.71;62.33;98715.22;1715390;83;21534;-40
2022/04/20 03:40:33;;;;;;;4.70;3.52;;;;;;;5.72;62.22;98716.76;1751355;82;21349;-39
2022/04/20 03:43:00;;;;;;;4.35;3.90;;;;;;;5.71;62.06;98712.53;1715303;83;21044;-39
2022/04/20 03:45:29;;;;;;;5.37;3.83;;;;;;;5.69;61.98;98712.30;1751434;81;21527;-39
2022/04/20 03:47:56;;;;;;;4.40;3.75;;;;;;;5.67;61.72;98711.85;1751261;82;21155;-39
2022/04/20 03:50:26;;;;;;;;;;;;;;;5.67;61.95;98711.06;1753989;82;20949;-39
2022/04/20 03:52:53;;;;;;;4.50;4.05;;;;;;;5.67;62.01;98708.38;1751407;81;20169;-40
2022/04/20 03:55:21;;;;;;;5.10;3.75;;;;;;;5.58;62.13;98703.70;1715315;83;21013;-39
2022/04/20 03:57:48;;;;;;;4.58;3.70;;;;;;;5.62;62.01;98709.41;1751417;81;21503;-39
2022/04/20 04:00:16;;;;;;;4.72;3.80;;;;;;;5.67;61.82;98717.78;1715299;83;23178;-39
2022/04/20 04:02:48;;;;;;;5.33;4.10;;;;;;;5.67;61.75;98710.50;1711128;83;21025;-39
2022/04/20 04:05:16;;;;;;;5.03;4.30;;;;;;;5.71;61.75;98711.19;1714814;83;21004;-39
2022/04/20 04:07:47;;;;;;;4.65;4.17;;;;;;;5.75;61.77;98716.09;1715158;83;21052;-39
2022/04/20 04:10:17;;;;;;;4.58;3.87;;;;;;;5.78;61.64;98711.36;1715465;83;21029;-39
2022/04/20 04:12:45;;;;;;;5.37;3.92;;;;;;;5.78;61.37;98718.88;1687304;83;21012;-39
2022/04/20 04:15:13;;;;;;;5.47;3.87;;;;;;;5.78;61.23;98718.88;1749053;81;20942;-39
2022/04/20 04:17:41;;;;;;;5.58;4.28;;;;;;;5.78;61.17;98710.02;1721323;82;20994;-39
2022/04/20 04:20:11;;;;;;;6.20;4.10;;;;;;;5.75;61.20;98710.72;1686511;85;21602;-39
2022/04/20 04:22:39;;;;;;;5.70;4.47;;;;;;;5.75;61.17;98706.68;1659470;85;21069;-39
2022/04/20 04:25:10;;;;;;;5.90;4.00;;;;;;;5.75;61.27;98702.65;1719466;83;21147;-39
2022/04/20 04:27:37;;;;;;;5.33;4.00;;;;;;;5.77;61.17;98700.38;1721206;83;20945;-39
2022/04/20 04:30:07;;;;;;;5.22;3.58;;;;;;;5.78;61.10;98705.98;1686819;85;21020;-39
2022/04/20 04:32:37;;;;;;;5.95;4.37;;;;;;;5.78;61.24;98706.77;1686484;85;21037;-39
2022/04/20 04:35:08;;;;;;;4.58;3.87;;;;;;;5.79;61.24;98712.93;1721709;83;21088;-39
2022/04/20 04:37:36;;;;;;;4.05;3.65;;;;;;;5.85;61.15;98710.22;1687165;85;21097;-39
2022/04/20 04:40:06;;;;;;;4.43;3.60;;;;;;;5.92;61.09;98713.12;1686633;85;21577;-39
2022/04/20 04:42:34;;;;;;;;;;;;;;;5.99;60.78;98710.07;1751433;81;21527;-39
2022/04/20 04:50:40;;;;;;;6.78;4.45;;;;;;;6.04;60.97;98707.69;1755486;81;21134;-40
2022/04/20 04:53:08;;;;;;;6.35;4.35;;;;;;;6.08;60.85;98722.80;1756206;81;21538;-39
2022/04/20 04:55:36;;;;;;;5.95;4.72;;;;;;;6.14;60.90;98721.98;1751961;81;21011;-39
2022/04/20 04:58:04;;;;;;;5.90;4.47;;;;;;;6.18;60.87;98725.55;1726847;82;20997;-40
2022/04/20 05:00:30;;;;;;;6.78;5.62;;;;;;;6.20;60.89;98727.87;1722739;82;21057;-39
2022/04/20 05:02:59;;;;;;;9.50;7.45;;;;;;;6.17;60.76;98723.97;1722617;82;21128;-39
2022/04/20 05:05:25;;;;;;;7.45;5.50;;;;;;;6.13;60.98;98723.11;1705192;82;21044;-39
2022/04/20 05:07:54;;;;;;;6.00;4.72;;;;;;;6.10;60.98;98721.88;1717577;83;21025;-39
2022/04/20 05:10:22;;;;;;;;;;;;;;;6.10;61.05;98723.78;1690674;85;21092;-39
2022/04/20 05:12:54;;;;;;;6.85;4.67;;;;;;;6.16;61.27;98718.92;1689231;84;20168;-38
2022/04/20 05:15:28;;;;;;;6.45;4.72;;;;;;;6.10;61.55;98719.74;1661440;84;21027;-35
2022/04/20 05:17:57;;;;;;;5.80;4.53;;;;;;;6.10;61.53;98728.59;1698583;84;20950;-37
2022/04/20 05:20:26;;;;;;;5.60;4.55;;;;;;;6.13;61.64;98725.02;1691411;84;21345;-36
2022/04/20 05:22:54;;;;;;;6.25;4.67;;;;;;;6.14;61.84;98735.44;1690222;84;21053;-36
2022/04/20 05:25:22;;;;;;;5.80;4.62;;;;;;;6.16;61.82;98738.55;1693553;84;21056;-36
2022/04/20 05:27:54;;;;;;;6.70;4.28;;;;;;;6.18;61.81;98728.23;1697431;84;21109;-36
2022/04/20 05:30:26;;;;;;;7.42;4.83;;;;;;;6.22;61.86;98729.67;1709830;83;20969;-37
2022/04/20 05:32:53;;;;;;;5.65;4.33;;;;;;;6.28;62.00;98735.80;1710774;83;21907;-36
2022/04/20 05:35:23;;;;;;;5.30;2.90;;;;;;;6.35;61.76;98733.84;1717872;83;21056;-37
2022/04/20 05:43:30;;;;;;;6.45;3.95;;;;;;;6.52;61.80;98741.59;1713491;83;21034;-38
2022/04/20 05:45:56;;;;;;;5.17;4.15;;;;;;;6.57;61.68;98737.30;1713710;83;21040;-36
2022/04/20 05:48:37;;;;;;;4.50;3.90;;;;;;;6.64;61.89;98745.53;1669883;83;21049;-36
2022/04/20 05:51:05;;;;;;;5.03;3.70;;;;;;;6.74;61.91;98741.53;1709401;83;21104;-36
2022/04/20 05:53:32;;;;;;;4.92;3.70;;;;;;;6.81;61.21;98741.72;1703060;83;21139;-36
2022/04/20 05:56:04;;;;;;;5.70;3.70;;;;;;;6.84;61.09;98739.66;1694694;84;21072;-36
2022/04/20 05:58:31;;;;;;;6.40;4.43;;;;;;;6.87;61.03;98737.04;1664427;85;21301;-36
2022/04/20 06:00:58;;;;;;;8.65;4.12;;;;;;;6.91;61.24;98743.87;1661238;85;20875;-36
2022/04/20 06:03:39;;;;;;;5.65;4.17;;;;;;;6.97;60.84;98749.22;1644120;84;20909;-36
2022/04/20 06:06:09;;;;;;;;;;;;;;;6.98;60.55;98747.51;1697542;84;21177;-36
2022/04/20 06:08:41;;;;;;;7.35;4.22;;;;;;;6.99;60.46;98751.77;1694011;84;20115;-36
2022/04/20 06:11:19;;;;;;;5.33;4.00;;;;;;;6.92;61.02;98752.94;1649661;86;21332;-36
2022/04/20 06:13:48;;;;;;;6.55;4.08;;;;;;;7.03;60.65;98752.41;1704061;84;21097;-36
2022/04/20 06:16:27;;;;;;;4.75;3.95;;;;;;;7.17;60.55;98752.73;1667614;85;22238;-36
2022/04/20 06:18:58;;;;;;;5.42;4.40;;;;;;;7.26;60.13;98748.70;1634978;85;21266;-36
2022/04/20 06:21:27;;;;;;;6.20;4.60;;;;;;;7.29;60.08;98752.06;1659693;85;20990;-37
2022/04/20 06:24:09;;;;;;;5.83;4.05;;;;;;;7.37;59.88;98751.64;1660358;85;21785;-37
2022/04/20 06:26:44;;;;;;;5.80;4.00;;;;;;;7.45;59.75;98751.23;1659064;85;21027;-38
2022/04/20 06:29:32;;;;;;;6.03;3.98;;;;;;;7.52;59.41;98744.63;1659745;85;21097;-38
2022/04/20 06:32:02;;;;;;;6.87;4.60;;;;;;;7.55;59.09;98749.34;1659734;85;21184;-38
2022/04/20 06:34:37;;;;;;;5.58;4.58;;;;;;;7.56;58.94;98748.96;1660168;84;21688;-39
2022/04/20 06:37:25;;;;;;;4.78;4.28;;;;;;;7.58;58.90;98743.23;1687903;84;21279;-39
2022/04/20 06:39:57;;;;;;;6.10;4.22;;;;;;;7.62;59.01;98738.67;1651193;84;21108;-39
2022/04/20 06:42:43;;;;;;;6.83;4.20;;;;;;;7.71;59.02;98748.69;1691144;84;21035;-38
2022/04/20 06:45:11;;;;;;;5.67;4.08;;;;;;;7.82;58.53;98759.13;1692762;84;23207;-37
2022/04/20 06:47:47;;;;;;;4.42;3.92;;;;;;;7.90;58.28;98750.03;1687677;84;21013;-37
2022/04/20 06:50:19;;;;;;;5.33;4.22;;;;;;;7.99;58.39;98749.84;1660484;85;21073;-38
2022/04/20 06:58:31;;;;;;;6.72;5.15;;;;;;;8.27;57.78;98757.11;1692226;84;21249;-38
2022/04/20 07:00:59;;;;;;;4.85;4.35;;;;;;;8.37;56.83;98761.17;1693867;83;22115;-41
2022/04/20 07:03:44;;;;;;;5.37;4.35;;;;;;;8.40;57.00;98757.74;1693956;84;21072;-41
2022/04/20 07:06:22;;;;;;;5.95;4.15;;;;;;;8.42;57.11;98756.83;1648744;86;21078;-46
2022/04/20 07:08:54;;;;;;;5.62;4.65;;;;;;;8.47;56.80;98761.93;1659101;84;20914;-45
2022/04/20 07:11:23;;;;;;;;;;;;;;;8.51;56.71;98750.05;1697626;84;21040;-44
2022/04/20 07:13:53;;;;;;;7.33;4.20;;;;;;;8.59;56.87;98738.77;1693908;84;20150;-43
2022/04/20 07:16:20;;;;;;;4.50;3.80;;;;;;;8.59;56.62;98732.02;1679096;85;21069;-43
2022/04/20 07:18:54;;;;;;;4.55;3.95;;;;;;;8.69;56.06;98723.31;1676240;85;21045;-43
2022/04/20 07:21:34;;;;;;;6.50;4.60;;;;;;;8.75;55.81;98734.03;1680760;85;20986;-43
2022/04/20 07:24:20;;;;;;;5.42;3.87;;;;;;;8.78;56.25;98730.59;1681108;85;20965;-42
2022/04/20 07:26:59;;;;;;;4.30;3.80;;;;;;;8.86;56.01;98736.31;1680922;85;20922;-42
2022/04/20 07:29:35;;;;;;;4.72;3.60;;;;;;;8.92;54.53;98727.33;1672181;85;22105;-41
2022/04/20 07:32:09;;;;;;;5.00;4.05;;;;;;;8.89;54.42;98726.14;1680557;85;21013;-42
2022/04/20 07:34:40;;;;;;;6.53;4.83;;;;;;;8.87;54.67;98729.77;1679664;84;21073;-42
2022/04/20 07:37:14;;;;;;;5.83;4.65;;;;;;;8.88;55.02;98725.92;1679451;84;21123;-41
2022/04/20 07:39:59;;;;;;;5.75;4.35;;;;;;;8.89;54.82;98726.14;1705642;84;21096;-43
2022/04/20 07:42:38;;;;;;;4.80;4.00;;;;;;;8.89;55.12;98728.06;1706662;84;21104;-41
2022/04/20 07:45:10;;;;;;;4.67;4.20;;;;;;;8.94;55.03;98716.38;1692351;83;21033;-42
2022/04/20 07:47:39;;;;;;;5.15;4.35;;;;;;;9.00;54.78;98716.27;1703910;83;21053;-42
2022/04/20 07:50:25;;;;;;;6.17;5.00;;;;;;;9.03;54.86;98706.64;1708592;83;21136;-42
2022/04/20 07:53:00;;;;;;;6.30;4.55;;;;;;;9.08;55.27;98711.17;1702230;83;21047;-42
2022/04/20 07:55:34;;;;;;;6.00;4.90;;;;;;;9.13;54.88;98709.50;1649184;85;21037;-42
2022/04/20 07:58:05;;;;;;;5.80;4.72;;;;;;;9.14;54.24;98702.17;1696524;83;21560;-41
2022/04/20 08:00:43;;;;;;;5.10;4.33;;;;;;;9.10;54.25;98699.40;1697674;83;21033;-42
2022/04/20 08:03:29;;;;;;;4.87;4.08;;;;;;;9.08;54.82;98700.92;1683262;83;21021;-46
2022/04/20 08:05:56;;;;;;;5.42;4.55;;;;;;;9.03;54.16;98693.91;1649536;87;20978;-46
2022/04/20 08:08:24;;;;;;;6.17;4.75;;;;;;;8.99;54.51;98689.02;1682975;85;21017;-44
2022/04/20 08:10:52;;;;;;;6.67;4.78;;;;;;;8.97;54.33;98686.47;1649723;86;21588;-43
2022/04/20 08:15:54;;;;;;;5.00;4.50;;;;;;;8.99;54.45;98680.92;1627720;86;21221;-44
2022/04/20 08:18:21;;;;;;;7.08;4.65;;;;;;;8.99;54.56;98675.51;1640722;87;21045;-44
2022/04/20 08:20:51;;;;;;;5.25;4.42;;;;;;;8.98;54.42;98679.34;1645749;87;21558;-44
2022/04/20 08:23:18;;;;;;;5.37;4.42;;;;;;;8.96;54.08;98681.63;1682775;85;21077;-42
2022/04/20 08:25:46;;;;;;;6.12;4.83;;;;;;;8.90;54.13;98693.14;1686565;83;21073;-44
2022/04/20 08:28:13;;;;;;;6.37;4.22;;;;;;;8.87;54.47;98694.62;1696251;83;21240;-44
2022/04/20 08:30:40;;;;;;;9.38;4.10;;;;;;;8.87;54.20;98700.03;1628392;86;20985;-43
2022/04/20 08:33:08;;;;;;;5.67;4.53;;;;;;;8.87;54.48;98698.68;1622886;88;21001;-44
2022/04/20 08:35:35;;;;;;;5.67;4.25;;;;;;;8.93;54.74;98700.51;1622636;87;21065;-45
2022/04/20 08:38:04;;;;;;;4.72;4.05;;;;;;;8.94;54.31;98708.27;1686132;83;21084;-45
2022/04/20 08:40:31;;;;;;;6.42;4.78;;;;;;;8.88;54.33;98705.66;1689530;83;21823;-43
2022/04/20 08:43:05;;;;;;;4.80;3.80;;;;;;;8.80;54.18;98710.75;1691690;83;21669;-44
2022/04/20 08:45:37;;;;;;;6.87;4.20;;;;;;;8.75;54.21;98709.71;1703226;83;21554;-44
2022/04/20 08:48:02;;;;;;;4.42;3.75;;;;;;;8.72;54.56;98713.12;1693157;84;21548;-44
2022/04/20 08:50:29;;;;;;;8.83;5.92;;;;;;;8.73;54.37;98710.63;1681625;84;21145;-44
2022/04/20 08:52:56;;;;;;;4.90;3.95;;;;;;;8.78;54.72;98710.33;1630763;87;21171;-43
2022/04/20 08:55:24;;;;;;;6.65;4.87;;;;;;;8.84;54.59;98710.23;1678245;84;20945;-44
2022/04/20 08:57:54;;;;;;;7.37;5.05;;;;;;;8.87;54.28;98708.71;1701159;84;20946;-44
2022/04/20 09:00:25;;;;;;;6.20;5.03;;;;;;;8.85;54.41;98706.96;1701266;83;20961;-44
2022/04/20 09:02:55;;;;;;;7.00;5.30;;;;;;;8.82;54.19;98708.45;1683183;84;21061;-43
2022/04/20 09:05:25;;;;;;;9.90;5.47;;;;;;;8.79;54.07;98705.13;1685122;84;21231;-43
2022/04/20 09:07:54;;;;;;;5.53;4.78;;;;;;;8.79;54.38;98690.84;1699749;84;21014;-43
2022/04/20 09:10:22;;;;;;;6.05;4.58;;;;;;;8.82;54.54;98681.42;1679664;84;21599;-42
2022/04/20 09:13:06;;;;;;;5.95;4.92;;;;;;;8.89;54.73;98681.55;1700083;84;21014;-42
2022/04/20 09:15:33;;;;;;;6.90;5.00;;;;;;;8.94;54.40;98679.88;1639174;87;21737;-42
2022/04/20 09:18:08;;;;;;;5.95;4.72;;;;;;;9.00;54.24;98687.89;1639040;87;21006;-43
2022/04/20 09:20:35;;;;;;;6.53;5.17;;;;;;;9.06;54.30;98693.16;1625168;87;21029;-42
2022/04/20 09:23:12;;;;;;;6.33;4.90;;;;;;;9.14;54.07;98699.47;1639250;87;21065;-42
2022/04/20 09:25:41;;;;;;;7.28;5.47;;;;;;;9.22;53.99;98707.88;1701526;84;21049;-42
2022/04/20 09:28:09;;;;;;;8.83;6.10;;;;;;;9.30;53.55;98715.50;1648066;86;21021;-42
2022/04/20 09:30:41;;;;;;;6.35;4.80;;;;;;;9.33;53.49;98710.73;1652212;86;21150;-41
2022/04/20 09:33:10;;;;;;;7.33;5.40;;;;;;;9.35;53.05;98710.55;1686191;84;21066;-50
2022/04/20 09:35:48;;;;;;;7.55;5.58;;;;;;;9.33;53.04;98709.38;1683153;84;21018;-41
2022/04/20 09:38:21;;;;;;;5.50;4.62;;;;;;;9.29;53.06;98715.31;1686004;84;21040;-41
2022/04/20 09:41:08;;;;;;;6.08;4.47;;;;;;;9.26;53.22;98716.03;1684034;84;21086;-41
2022/04/20 09:43:36;;;;;;;6.05;4.70;;;;;;;9.27;53.35;98715.67;1651757;86;21224;-41
2022/04/20 09:49:10;;;;;;;7.65;5.15;;;;;;;9.36;53.52;98723.52;1688149;84;21104;-42
2022/04/20 09:51:40;;;;;;;6.72;4.42;;;;;;;9.40;53.03;98715.64;1693304;84;21140;-42
2022/04/20 09:54:27;;;;;;;5.70;4.70;;;;;;;9.45;53.18;98719.95;1651319;86;21085;-43
2022/04/20 10:00:14;;;;;;;10.88;7.62;;;;;;;9.66;53.17;98718.88;1881265;76;22530;-42
2022/04/20 10:02:51;;;;;;;4.92;4.35;;;;;;;9.73;53.36;98712.78;1853963;77;20899;-41
2022/04/20 10:05:25;;;;;;;5.72;3.90;;;;;;;9.87;52.57;98712.95;1853935;77;21834;-42
2022/04/20 10:07:59;;;;;;;5.45;4.75;;;;;;;10.01;52.71;98712.52;1849664;77;20960;-41
2022/04/20 10:10:23;;;;;;;5.83;4.50;;;;;;;10.16;52.16;98720.82;1850726;77;21540;-42
2022/04/20 10:13:08;;;;;;;6.85;4.95;;;;;;;10.26;51.99;98713.37;1846055;77;20903;-42
2022/04/20 10:18:34;;;;;;;6.12;4.55;;;;;;;10.42;51.47;98717.96;1799937;77;20988;-42
2022/04/20 10:21:02;;;;;;;5.13;3.97;;;;;;;10.46;50.66;98711.99;1847603;77;20924;-42
2022/04/20 10:23:30;;;;;;;5.15;4.65;;;;;;;10.54;50.19;98706.86;1852629;77;20958;-42
2022/04/20 10:25:59;;;;;;;6.15;4.37;;;;;;;10.65;50.01;98715.08;1844430;77;21728;-42
2022/04/20 10:28:54;;;;;;;;;;;;;;;10.75;49.67;98714.36;1853731;77;21035;-43
2022/04/20 10:31:26;;;;;;;5.58;4.50;;;;;;;10.57;49.58;98673.57;1845737;77;21247;-42
2022/04/20 10:33:56;;;;;;;5.33;4.83;;;;;;;10.81;50.11;98711.51;1845173;77;21458;-42
2022/04/20 10:36:34;;;;;;;6.62;4.37;;;;;;;10.96;49.52;98712.39;1749239;80;21424;-42
2022/04/20 10:39:22;;;;;;;12.90;9.05;;;;;;;11.06;49.63;98714.39;1850060;76;20919;-42
2022/04/20 10:42:17;;;;;;;7.75;5.08;;;;;;;11.17;49.47;98709.25;1848406;77;21000;-43
2022/04/20 10:45:00;;;;;;;6.45;4.87;;;;;;;11.23;49.28;98717.20;1843564;77;21525;-42
2022/04/20 10:47:30;;;;;;;6.53;4.70;;;;;;;11.26;49.03;98707.55;1816656;79;20913;-43
2022/04/20 10:50:23;;;;;;;5.45;4.40;;;;;;;11.23;48.98;98722.63;1816825;79;20960;-43
2022/04/20 10:53:02;;;;;;;5.62;4.35;;;;;;;11.20;48.66;98726.69;1842061;77;21505;-43
2022/04/20 10:55:41;;;;;;;6.47;4.62;;;;;;;11.15;48.43;98726.47;1837577;77;20981;-43
2022/04/20 10:58:21;;;;;;;6.33;5.12;;;;;;;11.10;48.70;98728.75;1846060;77;21244;-43
2022/04/20 11:01:09;;;;;;;6.22;5.08;;;;;;;11.09;48.14;98723.91;1840020;78;21035;-43
2022/04/20 11:03:59;;;;;;;5.05;4.45;;;;;;;11.07;48.57;98728.16;1840521;78;21566;-43
2022/04/20 11:06:29;;;;;;;6.08;4.67;;;;;;;11.03;48.36;98731.44;1819025;77;21003;-43
2022/04/20 11:09:00;;;;;;;6.17;4.47;;;;;;;10.99;48.87;98727.92;1845331;77;20961;-43
2022/04/20 11:20:20;;;;;;;4.40;4.00;;;;;;;10.88;49.25;98730.55;1850857;77;20987;-44
2022/04/20 11:22:47;;;;;;;5.17;4.30;;;;;;;10.87;48.80;98727.06;1800854;77;20979;-45
2022/04/20 11:25:14;;;;;;;7.50;4.10;;;;;;;10.81;48.91;98730.48;1858347;77;21235;-44
2022/04/20 11:27:42;;;;;;;5.20;4.30;;;;;;;10.74;48.82;98728.52;1857062;77;21000;-43
2022/04/20 11:30:13;;;;;;;4.60;4.03;;;;;;;10.67;48.80;98730.38;1857186;77;20996;-43
2022/04/20 11:32:41;;;;;;;5.53;4.03;;;;;;;10.62;49.41;98736.92;1825261;77;21059;-43
2022/04/20 11:35:15;;;;;;;5.42;3.92;;;;;;;10.67;49.01;98731.16;1857533;77;21015;-43
2022/04/20 11:38:00;;;;;;;6.55;4.30;;;;;;;10.71;49.10;98721.69;1859055;77;21219;-43
2022/04/20 11:40:25;;;;;;;4.72;3.75;;;;;;;10.74;48.90;98721.74;1856576;77;21009;-43
2022/04/20 11:43:05;;;;;;;6.78;4.17;;;;;;;10.77;48.78;98725.05;1858621;77;20971;-43
2022/04/20 11:45:34;;;;;;;7.70;4.33;;;;;;;10.79;48.75;98724.10;1858352;77;21490;-43
2022/04/20 11:48:04;;;;;;;6.67;3.58;;;;;;;10.83;48.96;98723.55;1858506;77;21514;-43
2022/04/20 11:50:39;;;;;;;7.03;3.90;;;;;;;10.89;48.64;98715.24;1857558;77;23088;-43
2022/04/20 11:53:07;;;;;;;7.17;4.60;;;;;;;10.94;48.77;98710.64;1859861;77;20913;-43
2022/04/20 11:55:52;;;;;;;4.97;3.90;;;;;;;11.01;49.37;98706.03;1859545;77;21470;-43
2022/04/20 11:58:19;;;;;;;6.35;4.20;;;;;;;11.11;48.93;98690.98;1859386;77;21079;-44
2022/04/20 12:01:05;;;;;;;5.08;4.35;;;;;;;11.21;48.94;98688.91;1859469;77;21467;-43
2022/04/20 12:03:36;;;;;;;5.08;3.90;;;;;;;11.30;48.37;98690.13;1831482;77;21219;-43
2022/04/20 12:06:08;;;;;;;6.17;3.77;;;;;;;11.40;48.55;98688.63;1859293;77;20933;-43
2022/04/20 12:08:40;;;;;;;5.60;4.20;;;;;;;11.50;48.25;98683.04;1859699;77;20936;-43
2022/04/20 12:11:08;;;;;;;5.37;4.05;;;;;;;11.60;47.44;98684.45;1859348;77;20909;-43
2022/04/20 12:13:36;;;;;;;5.25;4.10;;;;;;;11.61;47.19;98676.50;1859905;77;21510;-43
2022/04/20 12:16:10;;;;;;;4.78;4.08;;;;;;;11.61;47.56;98680.58;1859690;77;20905;-43
2022/04/20 12:18:46;;;;;;;5.80;4.30;;;;;;;11.62;47.48;98669.89;1859177;77;21035;-43
2022/04/20 12:21:45;;;;;;;5.20;3.90;;;;;;;11.68;47.16;98662.16;1859350;77;21546;-43
2022/04/20 12:24:25;;;;;;;5.10;3.70;;;;;;;11.72;46.70;98663.75;1859606;77;21012;-43
2022/04/20 12:26:53;;;;;;;;;;;;;;;11.71;47.05;98660.80;1862632;77;21023;-43
2022/04/20 12:29:24;;;;;;;4.42;3.80;;;;;;;11.79;46.91;98658.15;1859911;77;21089;-43
2022/04/20 12:31:54;;;;;;;;;;;;;;;11.72;46.72;98658.32;1857032;77;20932;-43
2022/04/20 12:34:23;;;;;;;5.40;3.98;;;;;;;11.71;46.50;98658.70;1860288;77;20437;-43
2022/04/20 12:36:54;;;;;;;5.63;3.83;;;;;;;11.53;46.88;98648.33;1826489;77;20952;-43
2022/04/20 12:39:42;;;;;;;7.42;3.75;;;;;;;11.50;47.47;98645.04;1859609;77;21016;-43